Time;durP1;ratioP1;P1;durP2;ratioP2;P2;SDS_P1;SDS_P2;PMS_P1;PMS_P2;Temp;Humidity;BMP_temperature;BMP_pressure;BME280_temperature;BME280_humidity;BME280_pressure;Samples;Min_cycle;Max_cycle;Signal;HPM_P1;HPM_P2
2021/09/18 00:01:50;;;;;;;16.10;8.32;;;;;;;;;;5093749;28;20137;-77
2021/09/18 00:04:16;;;;;;;15.00;8.38;;;;;;;;;;5094726;28;20044;-76
2021/09/18 00:06:44;;;;;;;13.52;7.75;;;;;;;;;;5094289;28;20490;-77
2021/09/18 00:09:10;;;;;;;12.45;8.32;;;;;;;;;;5094508;28;20020;-77
2021/09/18 00:11:36;;;;;;;13.88;7.75;;;;;;;;;;5093404;28;20032;-76
2021/09/18 00:14:02;;;;;;;17.35;9.45;;;;;;;;;;5093031;28;20120;-77
2021/09/18 00:16:28;;;;;;;15.02;8.38;;;;;;;;;;5094170;28;20024;-77
2021/09/18 00:18:54;;;;;;;14.98;8.63;;;;;;;;;;5094071;28;20477;-76
2021/09/18 00:21:20;;;;;;;14.73;8.45;;;;;;;;;;5094379;28;20020;-76
2021/09/18 00:23:46;;;;;;;11.70;8.10;;;;;;;;;;5093928;28;20024;-76
2021/09/18 00:26:13;;;;;;;14.68;8.30;;;;;;;;;;5094385;28;20031;-76
2021/09/18 00:28:39;;;;;;;13.45;8.30;;;;;;;;;;5093885;28;20518;-77
2021/09/18 00:31:05;;;;;;;15.07;7.88;;;;;;;;;;5094273;28;20036;-77
2021/09/18 00:33:31;;;;;;;14.48;8.27;;;;;;;;;;5094100;28;20063;-77
2021/09/18 00:35:57;;;;;;;22.80;8.70;;;;;;;;;;5093791;28;20035;-76
2021/09/18 00:38:23;;;;;;;18.50;8.90;;;;;;;;;;5094170;28;20028;-77
2021/09/18 00:40:49;;;;;;;15.90;7.22;;;;;;;;;;5093525;28;20052;-77
2021/09/18 00:43:15;;;;;;;10.95;7.32;;;;;;;;;;5093969;28;20020;-75
2021/09/18 00:45:42;;;;;;;15.23;7.40;;;;;;;;;;5092194;28;20020;-76
2021/09/18 00:48:08;;;;;;;13.02;7.60;;;;;;;;;;5093992;28;20502;-76
2021/09/18 00:50:34;;;;;;;15.70;8.55;;;;;;;;;;5093820;28;20016;-76
2021/09/18 00:53:00;;;;;;;11.05;7.63;;;;;;;;;;5093278;28;20032;-75
2021/09/18 00:55:27;;;;;;;15.35;7.70;;;;;;;;;;5093625;28;20109;-77
2021/09/18 00:57:54;;;;;;;18.40;8.48;;;;;;;;;;5093410;28;20026;-77
2021/09/18 01:00:20;;;;;;;15.98;8.30;;;;;;;;;;5092787;28;20098;-76
2021/09/18 01:02:46;;;;;;;13.02;7.70;;;;;;;;;;5093422;28;20497;-77
2021/09/18 01:05:12;;;;;;;13.65;7.57;;;;;;;;;;5093279;28;20070;-75
2021/09/18 01:07:38;;;;;;;13.10;7.88;;;;;;;;;;5093507;28;20066;-76
2021/09/18 01:10:05;;;;;;;13.93;7.30;;;;;;;;;;5093055;28;20086;-75
2021/09/18 01:12:31;;;;;;;15.48;7.30;;;;;;;;;;5093374;28;20060;-77
2021/09/18 01:14:57;;;;;;;14.48;7.72;;;;;;;;;;5092872;28;20044;-77
2021/09/18 01:17:24;;;;;;;16.88;7.38;;;;;;;;;;5093286;28;20060;-77
2021/09/18 01:19:50;;;;;;;13.52;7.65;;;;;;;;;;5093248;28;20523;-78
2021/09/18 01:22:19;;;;;;;17.98;7.70;;;;;;;;;;5093040;28;20063;-76
2021/09/18 01:24:46;;;;;;;13.48;7.18;;;;;;;;;;5093128;28;20062;-76
2021/09/18 01:27:12;;;;;;;17.90;9.48;;;;;;;;;;5092999;28;20424;-77
2021/09/18 01:29:38;;;;;;;12.80;7.85;;;;;;;;;;5093158;28;20031;-78
2021/09/18 01:32:06;;;;;;;15.80;7.80;;;;;;;;;;5092748;28;20031;-78
2021/09/18 01:34:32;;;;;;;14.57;7.35;;;;;;;;;;5092874;28;20536;-75
2021/09/18 01:36:59;;;;;;;13.32;7.50;;;;;;;;;;5091597;28;20032;-75
2021/09/18 01:39:27;;;;;;;16.52;8.25;;;;;;;;;;5092702;28;20048;-77
2021/09/18 01:41:53;;;;;;;15.65;7.63;;;;;;;;;;5092419;28;20047;-76
2021/09/18 01:44:19;;;;;;;15.15;8.27;;;;;;;;;;5092934;28;20105;-77
2021/09/18 01:46:45;;;;;;;12.88;7.35;;;;;;;;;;5092841;28;20055;-76
2021/09/18 01:49:16;;;;;;;12.75;6.60;;;;;;;;;;5092382;28;20024;-76
2021/09/18 01:51:43;;;;;;;13.70;7.22;;;;;;;;;;5092790;28;20028;-75
2021/09/18 01:54:11;;;;;;;12.15;8.00;;;;;;;;;;5092169;28;20383;-75
2021/09/18 01:56:37;;;;;;;16.45;7.30;;;;;;;;;;5092568;28;20027;-75
2021/09/18 01:59:03;;;;;;;14.20;7.55;;;;;;;;;;5091063;28;20123;-75
2021/09/18 02:01:29;;;;;;;15.60;8.07;;;;;;;;;;5092604;28;20490;-77
2021/09/18 02:03:55;;;;;;;10.82;6.85;;;;;;;;;;5092345;28;20031;-77
2021/09/18 02:06:22;;;;;;;13.52;6.47;;;;;;;;;;5092371;28;20019;-76
2021/09/18 02:08:48;;;;;;;13.43;7.25;;;;;;;;;;5092431;28;20028;-75
2021/09/18 02:11:14;;;;;;;16.40;7.65;;;;;;;;;;5091623;28;20035;-75
2021/09/18 02:13:40;;;;;;;14.07;6.93;;;;;;;;;;5092397;28;20062;-75
2021/09/18 02:16:06;;;;;;;15.75;7.28;;;;;;;;;;5091938;28;20028;-77
2021/09/18 02:18:32;;;;;;;11.50;7.20;;;;;;;;;;5090992;28;20032;-75
2021/09/18 02:20:58;;;;;;;11.75;6.95;;;;;;;;;;5092098;28;20031;-75
2021/09/18 02:23:24;;;;;;;15.45;7.80;;;;;;;;;;5092089;28;20512;-78
2021/09/18 02:25:50;;;;;;;11.07;6.55;;;;;;;;;;5092103;28;20024;-77
2021/09/18 02:28:16;;;;;;;15.13;7.28;;;;;;;;;;5091917;28;20471;-75
2021/09/18 02:30:42;;;;;;;14.25;7.32;;;;;;;;;;5092224;28;20031;-76
2021/09/18 02:33:08;;;;;;;12.38;7.10;;;;;;;;;;5091413;28;20433;-75
2021/09/18 02:35:35;;;;;;;12.55;6.78;;;;;;;;;;5092086;28;20029;-76
2021/09/18 02:38:01;;;;;;;12.45;8.05;;;;;;;;;;5092103;28;20024;-77
2021/09/18 02:40:28;;;;;;;10.90;7.38;;;;;;;;;;5091678;28;20568;-77
2021/09/18 02:42:56;;;;;;;14.80;7.78;;;;;;;;;;5092002;28;20020;-76
2021/09/18 02:45:23;;;;;;;14.30;7.35;;;;;;;;;;5091776;28;20475;-77
2021/09/18 02:47:49;;;;;;;17.88;7.93;;;;;;;;;;5092128;28;20028;-76
2021/09/18 02:50:17;;;;;;;12.95;7.57;;;;;;;;;;5091625;28;20371;-76
2021/09/18 02:52:43;;;;;;;13.70;7.57;;;;;;;;;;5091907;28;20020;-76
2021/09/18 02:55:10;;;;;;;19.02;7.82;;;;;;;;;;5091731;28;20028;-77
2021/09/18 02:57:36;;;;;;;15.43;7.95;;;;;;;;;;5090543;28;20039;-77
2021/09/18 03:00:03;;;;;;;16.67;7.20;;;;;;;;;;5091827;28;20032;-75
2021/09/18 03:02:29;;;;;;;15.52;8.00;;;;;;;;;;5091686;28;20478;-76
2021/09/18 03:04:55;;;;;;;15.48;7.85;;;;;;;;;;5091870;28;20016;-76
2021/09/18 03:07:21;;;;;;;14.10;7.53;;;;;;;;;;5091305;28;20035;-75
2021/09/18 03:09:47;;;;;;;13.88;7.00;;;;;;;;;;5090618;28;20054;-74
2021/09/18 03:12:14;;;;;;;15.98;7.85;;;;;;;;;;5091416;28;20039;-76
2021/09/18 03:14:40;;;;;;;15.68;7.63;;;;;;;;;;5091726;28;20533;-77
2021/09/18 03:17:06;;;;;;;15.65;7.43;;;;;;;;;;5091730;28;20024;-75
2021/09/18 03:19:32;;;;;;;18.27;8.00;;;;;;;;;;5091269;28;20032;-75
2021/09/18 03:21:58;;;;;;;14.07;6.93;;;;;;;;;;5091672;28;20467;-76
2021/09/18 03:24:24;;;;;;;14.27;7.78;;;;;;;;;;5094595;28;20481;-77
2021/09/18 03:26:51;;;;;;;14.82;7.95;;;;;;;;;;5095472;28;20062;-76
2021/09/18 03:29:17;;;;;;;15.95;6.93;;;;;;;;;;5095138;28;20035;-77
2021/09/18 03:31:43;;;;;;;16.83;7.28;;;;;;;;;;5095214;28;20032;-77
2021/09/18 03:34:09;;;;;;;11.80;6.68;;;;;;;;;;5095158;28;20471;-77
2021/09/18 03:36:36;;;;;;;16.65;6.78;;;;;;;;;;5094916;28;20051;-77
2021/09/18 03:39:02;;;;;;;13.38;7.18;;;;;;;;;;5095084;28;20059;-76
2021/09/18 03:41:28;;;;;;;16.85;7.95;;;;;;;;;;5094834;28;20031;-74
2021/09/18 03:43:54;;;;;;;15.27;7.35;;;;;;;;;;5095240;28;20441;-76
2021/09/18 03:46:20;;;;;;;12.98;6.93;;;;;;;;;;5094914;28;20475;-76
2021/09/18 03:48:46;;;;;;;14.13;6.72;;;;;;;;;;5094904;28;20039;-77
2021/09/18 03:51:12;;;;;;;17.42;8.68;;;;;;;;;;5095021;28;20028;-78
2021/09/18 03:53:38;;;;;;;14.75;7.45;;;;;;;;;;5094717;28;20090;-75
2021/09/18 03:56:06;;;;;;;17.33;7.13;;;;;;;;;;5094905;28;20337;-76
2021/09/18 03:58:32;;;;;;;20.10;9.85;;;;;;;;;;5094818;28;20024;-77
2021/09/18 04:00:58;;;;;;;10.50;7.97;;;;;;;;;;5094801;28;20028;-77
2021/09/18 04:03:24;;;;;;;14.48;7.30;;;;;;;;;;5094572;28;20050;-76
2021/09/18 04:05:51;;;;;;;14.95;7.80;;;;;;;;;;5094533;28;20024;-75
2021/09/18 04:08:17;;;;;;;12.77;8.27;;;;;;;;;;5094512;28;20028;-76
2021/09/18 04:10:43;;;;;;;14.27;7.65;;;;;;;;;;5094331;28;20459;-77
2021/09/18 04:13:09;;;;;;;13.68;8.23;;;;;;;;;;5094424;28;20032;-77
2021/09/18 04:15:35;;;;;;;17.50;8.48;;;;;;;;;;5094287;28;20051;-75
2021/09/18 04:18:01;;;;;;;13.43;8.05;;;;;;;;;;5093996;28;20028;-75
2021/09/18 04:20:27;;;;;;;16.02;8.10;;;;;;;;;;5094396;28;20031;-74
2021/09/18 04:22:53;;;;;;;14.80;7.85;;;;;;;;;;5093993;28;20111;-77
2021/09/18 04:25:19;;;;;;;15.75;7.95;;;;;;;;;;5094209;28;20383;-76
2021/09/18 04:27:46;;;;;;;12.65;7.20;;;;;;;;;;5093759;28;20028;-77
2021/09/18 04:30:12;;;;;;;17.83;7.53;;;;;;;;;;5094140;28;20089;-76
2021/09/18 04:32:38;;;;;;;14.68;7.07;;;;;;;;;;5093910;28;20533;-75
2021/09/18 04:35:05;;;;;;;14.13;7.13;;;;;;;;;;5093927;28;20136;-76
2021/09/18 04:37:31;;;;;;;9.93;6.68;;;;;;;;;;5092687;28;20522;-75
2021/09/18 04:39:57;;;;;;;16.73;6.93;;;;;;;;;;5093508;28;20136;-75
2021/09/18 04:42:23;;;;;;;11.73;6.70;;;;;;;;;;5093879;28;20390;-74
2021/09/18 04:44:49;;;;;;;18.90;7.82;;;;;;;;;;5093537;28;20016;-75
2021/09/18 04:47:15;;;;;;;16.77;6.70;;;;;;;;;;5092408;28;20027;-76
2021/09/18 04:49:41;;;;;;;16.35;6.20;;;;;;;;;;5093718;28;20030;-77
2021/09/18 04:52:07;;;;;;;14.20;5.80;;;;;;;;;;5093654;28;20032;-76
2021/09/18 04:54:33;;;;;;;13.77;6.03;;;;;;;;;;5093655;28;20040;-74
2021/09/18 04:57:00;;;;;;;16.77;6.32;;;;;;;;;;5093345;28;20024;-76
2021/09/18 04:59:26;;;;;;;16.15;7.43;;;;;;;;;;5093581;28;20035;-75
2021/09/18 05:01:52;;;;;;;13.88;6.22;;;;;;;;;;5093185;28;20090;-75
2021/09/18 05:04:18;;;;;;;18.38;8.32;;;;;;;;;;5093406;28;20058;-75
2021/09/18 05:06:44;;;;;;;14.10;6.07;;;;;;;;;;5093421;28;20028;-74
2021/09/18 05:09:10;;;;;;;17.05;7.10;;;;;;;;;;5093273;28;20486;-77
2021/09/18 05:11:37;;;;;;;15.88;8.73;;;;;;;;;;5093279;28;20102;-77
2021/09/18 05:14:03;;;;;;;26.92;13.93;;;;;;;;;;5093033;28;20032;-77
2021/09/18 05:16:29;;;;;;;23.70;10.70;;;;;;;;;;5092957;28;20035;-75
2021/09/18 05:18:55;;;;;;;30.55;20.40;;;;;;;;;;5091206;28;20081;-77
2021/09/18 05:21:21;;;;;;;26.40;16.80;;;;;;;;;;5092749;28;20024;-75
2021/09/18 05:23:49;;;;;;;25.30;13.25;;;;;;;;;;5092370;28;20035;-75
2021/09/18 05:26:15;;;;;;;25.88;14.70;;;;;;;;;;5092911;28;20036;-78
2021/09/18 05:28:42;;;;;;;24.58;12.13;;;;;;;;;;5093206;28;20028;-77
2021/09/18 05:31:08;;;;;;;21.65;11.40;;;;;;;;;;5092682;28;20024;-75
2021/09/18 05:33:34;;;;;;;23.98;9.02;;;;;;;;;;5092954;28;20072;-77
2021/09/18 05:36:00;;;;;;;22.98;11.98;;;;;;;;;;5092473;28;20497;-76
2021/09/18 05:38:26;;;;;;;29.27;18.02;;;;;;;;;;5091555;28;20028;-78
2021/09/18 05:40:52;;;;;;;30.35;19.90;;;;;;;;;;5092756;28;20048;-76
2021/09/18 05:43:18;;;;;;;29.90;15.75;;;;;;;;;;5093166;28;20020;-77
2021/09/18 05:45:45;;;;;;;21.95;11.32;;;;;;;;;;5092045;28;20043;-76
2021/09/18 05:48:11;;;;;;;24.05;12.80;;;;;;;;;;5092167;28;20030;-75
2021/09/18 05:50:37;;;;;;;25.15;13.20;;;;;;;;;;5092229;28;20363;-75
2021/09/18 05:53:03;;;;;;;20.52;8.63;;;;;;;;;;5093139;28;20465;-74
2021/09/18 05:55:29;;;;;;;15.50;7.85;;;;;;;;;;5091948;28;20096;-76
2021/09/18 05:58:00;;;;;;;15.50;7.28;;;;;;;;;;5092897;28;20033;-78
2021/09/18 06:00:29;;;;;;;19.85;7.20;;;;;;;;;;5092760;28;20487;-77
2021/09/18 06:02:55;;;;;;;17.83;6.32;;;;;;;;;;5093044;28;20027;-78
2021/09/18 06:05:21;;;;;;;17.83;7.60;;;;;;;;;;5093029;28;20383;-75
2021/09/18 06:07:48;;;;;;;13.27;7.03;;;;;;;;;;5092766;28;20028;-75
2021/09/18 06:10:14;;;;;;;18.92;7.60;;;;;;;;;;5092686;28;20375;-77
2021/09/18 06:12:40;;;;;;;16.92;7.72;;;;;;;;;;5092688;28;20053;-77
2021/09/18 06:15:06;;;;;;;20.05;8.35;;;;;;;;;;5092829;28;20123;-74
2021/09/18 06:17:32;;;;;;;25.85;17.23;;;;;;;;;;5091328;28;20036;-78
2021/09/18 06:19:59;;;;;;;18.02;9.20;;;;;;;;;;5092836;28;20103;-74
2021/09/18 06:22:25;;;;;;;17.20;7.55;;;;;;;;;;5092742;28;20038;-75
2021/09/18 06:24:51;;;;;;;13.32;6.93;;;;;;;;;;5092285;28;20028;-74
2021/09/18 06:27:17;;;;;;;16.83;7.22;;;;;;;;;;5092645;28;20020;-76
2021/09/18 06:29:43;;;;;;;13.13;6.68;;;;;;;;;;5092412;28;20078;-77
2021/09/18 06:32:09;;;;;;;17.70;7.00;;;;;;;;;;5092430;28;20134;-78
2021/09/18 06:34:37;;;;;;;13.40;7.05;;;;;;;;;;5092602;28;20152;-76
2021/09/18 06:37:03;;;;;;;12.82;6.32;;;;;;;;;;5092370;28;20024;-76
2021/09/18 06:39:29;;;;;;;13.13;6.00;;;;;;;;;;5092461;28;20120;-75
2021/09/18 06:41:55;;;;;;;16.05;7.55;;;;;;;;;;5091791;28;20028;-76
2021/09/18 06:44:21;;;;;;;14.57;7.13;;;;;;;;;;5092486;28;20035;-76
2021/09/18 06:46:50;;;;;;;14.98;6.90;;;;;;;;;;5092070;28;20047;-76
2021/09/18 06:49:16;;;;;;;17.02;7.30;;;;;;;;;;5092295;28;20524;-76
2021/09/18 06:51:42;;;;;;;15.48;7.35;;;;;;;;;;5091967;28;20030;-76
2021/09/18 06:54:09;;;;;;;15.20;8.48;;;;;;;;;;5092324;28;20475;-76
2021/09/18 06:56:35;;;;;;;15.65;7.28;;;;;;;;;;5091972;28;20486;-77
2021/09/18 06:59:01;;;;;;;18.45;8.88;;;;;;;;;;5094975;28;20036;-78
2021/09/18 07:01:27;;;;;;;14.38;6.70;;;;;;;;;;5096524;28;20043;-74
2021/09/18 07:03:54;;;;;;;13.95;7.07;;;;;;;;;;5096046;28;20199;-76
2021/09/18 07:06:20;;;;;;;19.25;6.80;;;;;;;;;;5096579;28;20441;-76
2021/09/18 07:08:46;;;;;;;16.88;7.72;;;;;;;;;;5096087;28;20028;-77
2021/09/18 07:11:12;;;;;;;16.65;8.55;;;;;;;;;;5095672;28;20107;-77
2021/09/18 07:13:40;;;;;;;17.85;7.18;;;;;;;;;;5096382;28;20036;-76
2021/09/18 07:16:07;;;;;;;19.75;8.65;;;;;;;;;;5094523;28;20356;-79
2021/09/18 07:18:33;;;;;;;24.08;8.98;;;;;;;;;;5096196;28;20375;-76
2021/09/18 07:20:59;;;;;;;20.95;8.98;;;;;;;;;;5095871;28;20538;-77
2021/09/18 07:23:25;;;;;;;32.75;8.27;;;;;;;;;;5096106;28;20030;-78
2021/09/18 07:25:52;;;;;;;20.75;6.65;;;;;;;;;;5095203;28;20069;-76
2021/09/18 07:28:18;;;;;;;17.10;6.68;;;;;;;;;;5095840;28;20782;-77
2021/09/18 07:30:44;;;;;;;19.95;7.53;;;;;;;;;;5096033;28;20071;-77
2021/09/18 07:33:10;;;;;;;15.20;7.90;;;;;;;;;;5095117;28;20032;-79
2021/09/18 07:35:37;;;;;;;17.77;10.18;;;;;;;;;;5095981;28;20051;-75
2021/09/18 07:38:04;;;;;;;19.33;9.43;;;;;;;;;;5095155;28;20035;-76
2021/09/18 07:40:30;;;;;;;19.38;9.88;;;;;;;;;;5095105;28;20043;-75
2021/09/18 07:42:57;;;;;;;19.60;7.55;;;;;;;;;;5095341;28;20024;-77
2021/09/18 07:45:23;;;;;;;18.85;7.65;;;;;;;;;;5095725;28;20028;-73
2021/09/18 07:47:49;;;;;;;13.77;5.53;;;;;;;;;;5095042;28;20035;-76
2021/09/18 07:50:15;;;;;;;26.42;9.50;;;;;;;;;;5095465;28;20031;-78
2021/09/18 07:52:41;;;;;;;30.05;11.10;;;;;;;;;;5095482;28;20383;-76
2021/09/18 07:55:08;;;;;;;21.20;9.52;;;;;;;;;;5094537;28;20032;-75
2021/09/18 07:57:34;;;;;;;22.75;8.32;;;;;;;;;;5095689;28;20027;-75
2021/09/18 08:00:00;;;;;;;17.08;5.93;;;;;;;;;;5095190;28;20028;-76
2021/09/18 08:02:26;;;;;;;13.27;6.60;;;;;;;;;;5094923;28;20024;-77
2021/09/18 08:04:55;;;;;;;16.60;9.20;;;;;;;;;;5095271;28;20025;-77
2021/09/18 08:07:21;;;;;;;16.70;7.60;;;;;;;;;;5095062;28;20039;-76
2021/09/18 08:09:53;;;;;;;17.48;9.18;;;;;;;;;;5094501;28;20028;-77
2021/09/18 08:12:19;;;;;;;14.15;8.52;;;;;;;;;;5094608;28;20043;-77
2021/09/18 08:14:47;;;;;;;16.60;9.48;;;;;;;;;;5095107;28;20036;-77
2021/09/18 08:17:13;;;;;;;18.73;8.00;;;;;;;;;;5094489;28;20036;-77
2021/09/18 08:19:39;;;;;;;17.60;9.10;;;;;;;;;;5095182;28;20042;-77
2021/09/18 08:22:05;;;;;;;20.20;10.57;;;;;;;;;;5094696;28;20032;-77
2021/09/18 08:24:32;;;;;;;19.27;10.45;;;;;;;;;;5094456;28;20020;-77
2021/09/18 08:26:58;;;;;;;30.80;16.60;;;;;;;;;;5094599;28;20035;-76
2021/09/18 08:29:24;;;;;;;22.17;16.52;;;;;;;;;;5094697;28;20490;-77
2021/09/18 08:31:50;;;;;;;20.77;14.68;;;;;;;;;;5094624;28;20095;-77
2021/09/18 08:34:16;;;;;;;15.32;10.85;;;;;;;;;;5094037;28;20479;-78
2021/09/18 08:36:42;;;;;;;14.93;9.90;;;;;;;;;;5094224;28;20501;-79
2021/09/18 08:39:08;;;;;;;11.23;8.80;;;;;;;;;;5093553;28;20063;-78
2021/09/18 08:41:35;;;;;;;8.55;5.07;;;;;;;;;;5094146;28;20035;-79
2021/09/18 08:44:04;;;;;;;7.13;4.85;;;;;;;;;;5093733;28;20020;-79
2021/09/18 08:46:30;;;;;;;11.75;4.38;;;;;;;;;;5094120;28;20390;-63
2021/09/18 08:48:57;;;;;;;9.48;5.13;;;;;;;;;;5093869;28;20016;-77
2021/09/18 08:51:23;;;;;;;7.28;4.70;;;;;;;;;;5093945;28;20098;-79
2021/09/18 08:53:49;;;;;;;9.05;3.88;;;;;;;;;;5092819;28;20140;-78
2021/09/18 08:56:16;;;;;;;6.72;4.35;;;;;;;;;;5093709;28;20103;-81
2021/09/18 08:58:43;;;;;;;7.07;5.22;;;;;;;;;;5094042;28;20417;-79
2021/09/18 09:01:12;;;;;;;8.35;5.13;;;;;;;;;;5093651;28;20085;-81
2021/09/18 09:03:38;;;;;;;6.22;4.45;;;;;;;;;;5094879;28;20369;-79
2021/09/18 09:06:23;;;;;;;13.98;8.32;;;;;;;;;;5093881;28;20031;-78
2021/09/18 09:09:08;;;;;;;14.02;11.68;;;;;;;;;;5092110;28;20026;-78
2021/09/18 09:11:34;;;;;;;13.90;9.40;;;;;;;;;;5093327;28;20429;-82
2021/09/18 09:14:05;;;;;;;10.20;6.25;;;;;;;;;;5093636;28;20040;-80
2021/09/18 09:16:34;;;;;;;12.73;6.95;;;;;;;;;;5090618;28;20046;-74
2021/09/18 09:19:12;;;;;;;17.90;11.20;;;;;;;;;;5093624;28;20028;-78
2021/09/18 09:21:45;;;;;;;11.77;4.63;;;;;;;;;;5092874;28;20067;-78
2021/09/18 09:24:15;;;;;;;13.93;7.82;;;;;;;;;;5093406;28;20016;-80
2021/09/18 09:26:42;;;;;;;14.10;8.23;;;;;;;;;;5093571;28;20032;-78
2021/09/18 09:29:09;;;;;;;10.32;4.55;;;;;;;;;;5093659;28;20382;-81
2021/09/18 09:31:36;;;;;;;6.53;3.50;;;;;;;;;;5092957;28;20107;-77
2021/09/18 09:34:15;;;;;;;9.15;4.15;;;;;;;;;;5093296;28;20036;-77
2021/09/18 09:36:47;;;;;;;8.77;3.83;;;;;;;;;;5093175;28;20028;-78
2021/09/18 09:39:15;;;;;;;7.65;3.30;;;;;;;;;;5092626;28;20052;-78
2021/09/18 09:41:46;;;;;;;7.35;3.83;;;;;;;;;;5093171;28;20115;-77
2021/09/18 09:44:18;;;;;;;11.10;4.68;;;;;;;;;;5093104;28;20033;-77
2021/09/18 09:47:03;;;;;;;9.75;5.90;;;;;;;;;;5092667;28;20561;-78
2021/09/18 09:49:42;;;;;;;11.43;7.43;;;;;;;;;;5092816;28;20137;-78
2021/09/18 09:52:18;;;;;;;11.68;6.15;;;;;;;;;;5093110;28;20099;-77
2021/09/18 09:54:45;;;;;;;7.97;4.80;;;;;;;;;;5092778;28;20122;-78
2021/09/18 09:57:12;;;;;;;9.98;5.53;;;;;;;;;;5093022;28;20028;-78
2021/09/18 09:59:39;;;;;;;13.80;7.47;;;;;;;;;;5091518;28;20032;-77
2021/09/18 10:02:06;;;;;;;12.82;7.57;;;;;;;;;;5092647;28;20055;-77
2021/09/18 10:04:33;;;;;;;12.73;10.32;;;;;;;;;;5092762;28;20037;-79
2021/09/18 10:06:59;;;;;;;30.38;22.48;;;;;;;;;;5092857;28;20020;-80
2021/09/18 10:09:26;;;;;;;22.85;18.15;;;;;;;;;;5092475;28;20094;-80
2021/09/18 10:11:53;;;;;;;22.35;18.42;;;;;;;;;;5092803;28;20039;-79
2021/09/18 10:14:21;;;;;;;24.48;16.98;;;;;;;;;;5092673;28;20044;-79
2021/09/18 10:16:52;;;;;;;22.98;15.55;;;;;;;;;;5091719;28;20098;-80
2021/09/18 10:19:29;;;;;;;17.17;12.95;;;;;;;;;;5092780;28;20020;-78
2021/09/18 10:24:41;;;;;;;19.23;12.93;;;;;;;;;;5092850;28;20074;-78
2021/09/18 10:27:14;;;;;;;14.48;9.40;;;;;;;;;;5092469;28;20044;-80
2021/09/18 10:29:40;;;;;;;14.30;9.85;;;;;;;;;;5092098;28;20036;-79
2021/09/18 10:32:06;;;;;;;13.95;7.90;;;;;;;;;;5092481;28;20035;-79
2021/09/18 10:34:33;;;;;;;13.57;7.95;;;;;;;;;;5092424;28;20092;-77
2021/09/18 10:36:59;;;;;;;11.60;6.50;;;;;;;;;;5092142;28;20107;-80
2021/09/18 10:39:25;;;;;;;11.95;8.23;;;;;;;;;;5092334;28;20052;-78
2021/09/18 10:41:56;;;;;;;15.23;10.27;;;;;;;;;;5090850;28;20164;-77
2021/09/18 10:44:23;;;;;;;15.98;9.90;;;;;;;;;;5090847;28;20024;-79
2021/09/18 10:46:54;;;;;;;14.13;7.82;;;;;;;;;;5092111;28;20031;-80
2021/09/18 10:49:37;;;;;;;12.65;8.30;;;;;;;;;;5092438;28;20134;-79
2021/09/18 10:52:15;;;;;;;11.73;7.22;;;;;;;;;;5091783;28;20085;-78
2021/09/18 10:55:01;;;;;;;11.43;5.53;;;;;;;;;;5092190;28;20028;-79
2021/09/18 10:57:37;;;;;;;10.15;5.80;;;;;;;;;;5092223;28;20472;-78
2021/09/18 11:00:04;;;;;;;9.00;5.97;;;;;;;;;;5091926;28;20043;-77
2021/09/18 11:02:30;;;;;;;12.05;7.15;;;;;;;;;;5092333;28;20032;-77
2021/09/18 11:05:07;;;;;;;21.77;16.02;;;;;;;;;;5091950;28;20031;-77
2021/09/18 11:07:39;;;;;;;14.10;7.97;;;;;;;;;;5092027;28;20390;-79
2021/09/18 11:10:05;;;;;;;15.60;9.73;;;;;;;;;;5092147;28;20067;-77
2021/09/18 11:12:31;;;;;;;16.83;11.00;;;;;;;;;;5091012;28;20391;-78
2021/09/18 11:15:05;;;;;;;12.93;8.90;;;;;;;;;;5091518;28;20041;-78
2021/09/18 11:17:32;;;;;;;14.77;9.88;;;;;;;;;;5092042;28;20036;-77
2021/09/18 11:20:11;;;;;;;20.27;14.95;;;;;;;;;;5091912;28;20107;-77
2021/09/18 11:22:41;;;;;;;14.85;8.40;;;;;;;;;;5091913;28;20024;-79
2021/09/18 11:25:25;;;;;;;16.50;7.75;;;;;;;;;;5092103;28;20028;-78
2021/09/18 11:27:51;;;;;;;;;;;;;;;;;;5092632;28;20028;-77
2021/09/18 11:30:17;;;;;;;13.73;6.43;;;;;;;;;;5091681;28;19904;-80
2021/09/18 11:32:45;;;;;;;13.65;7.30;;;;;;;;;;5092028;28;20028;-78
2021/09/18 11:35:11;;;;;;;14.77;8.73;;;;;;;;;;5091855;28;20043;-77
2021/09/18 11:37:39;;;;;;;10.75;7.05;;;;;;;;;;5092007;28;20024;-78
2021/09/18 11:40:07;;;;;;;13.57;8.00;;;;;;;;;;5091428;28;20052;-76
2021/09/18 11:42:37;;;;;;;11.93;7.28;;;;;;;;;;5092222;28;20024;-78
2021/09/18 11:45:09;;;;;;;10.57;6.93;;;;;;;;;;5094163;28;20053;-78
2021/09/18 11:47:42;;;;;;;13.85;7.43;;;;;;;;;;5095669;28;20062;-76
2021/09/18 11:50:18;;;;;;;12.63;7.57;;;;;;;;;;5095419;28;20135;-77
2021/09/18 11:52:44;;;;;;;10.50;6.32;;;;;;;;;;5095518;28;20028;-78
2021/09/18 11:55:29;;;;;;;8.38;5.95;;;;;;;;;;5095039;28;20044;-76
2021/09/18 11:58:02;;;;;;;10.15;6.38;;;;;;;;;;5095189;28;20020;-78
2021/09/18 12:00:28;;;;;;;9.30;6.13;;;;;;;;;;5095240;28;20024;-76
2021/09/18 12:02:57;;;;;;;10.20;6.68;;;;;;;;;;5095054;28;20032;-78
2021/09/18 12:05:24;;;;;;;6.90;5.43;;;;;;;;;;5095185;28;20086;-79
2021/09/18 12:07:51;;;;;;;10.73;6.22;;;;;;;;;;5095188;28;20100;-78
2021/09/18 12:10:18;;;;;;;8.45;4.70;;;;;;;;;;5094931;28;20494;-79
2021/09/18 12:12:53;;;;;;;10.25;5.10;;;;;;;;;;5095325;28;20084;-78
2021/09/18 12:15:29;;;;;;;13.52;4.88;;;;;;;;;;5094530;28;20063;-76
2021/09/18 12:17:56;;;;;;;7.28;3.42;;;;;;;;;;5094592;28;20035;-75
2021/09/18 12:20:22;;;;;;;7.10;5.35;;;;;;;;;;5094632;28;20030;-81
2021/09/18 12:22:48;;;;;;;5.70;3.67;;;;;;;;;;5094492;28;20494;-77
2021/09/18 12:25:14;;;;;;;5.72;3.50;;;;;;;;;;5094429;28;20092;-76
2021/09/18 12:27:40;;;;;;;6.95;3.58;;;;;;;;;;5094379;28;20028;-77
2021/09/18 12:30:14;;;;;;;5.47;4.05;;;;;;;;;;5093212;28;20421;-77
2021/09/18 12:32:41;;;;;;;3.83;2.45;;;;;;;;;;5094428;28;20040;-80
2021/09/18 12:35:08;;;;;;;10.27;6.88;;;;;;;;;;5094256;28;20089;-78
2021/09/18 12:37:36;;;;;;;6.95;4.28;;;;;;;;;;5094330;28;20024;-77
2021/09/18 12:40:10;;;;;;;10.80;4.18;;;;;;;;;;5094155;28;20065;-77
2021/09/18 12:42:36;;;;;;;4.28;1.98;;;;;;;;;;5093976;28;20028;-79
2021/09/18 12:45:20;;;;;;;7.78;2.30;;;;;;;;;;5094135;28;20024;-79
2021/09/18 12:47:46;;;;;;;6.77;3.57;;;;;;;;;;5094261;28;20028;-77
2021/09/18 12:50:16;;;;;;;4.43;2.30;;;;;;;;;;5093868;28;20467;-73
2021/09/18 12:52:42;;;;;;;4.70;2.25;;;;;;;;;;5092895;28;20020;-76
2021/09/18 12:55:08;;;;;;;6.90;3.08;;;;;;;;;;5092915;28;20112;-76
2021/09/18 12:57:34;;;;;;;3.03;1.98;;;;;;;;;;5093684;28;20055;-77
2021/09/18 13:00:08;;;;;;;3.38;2.08;;;;;;;;;;5094049;28;20466;-75
2021/09/18 13:02:35;;;;;;;3.10;2.60;;;;;;;;;;5093744;28;20032;-77
2021/09/18 13:05:03;;;;;;;4.70;2.40;;;;;;;;;;5093863;28;20462;-75
2021/09/18 13:07:29;;;;;;;3.90;3.13;;;;;;;;;;5093287;28;20165;-77
2021/09/18 13:09:57;;;;;;;3.80;2.20;;;;;;;;;;5093654;28;20432;-76
2021/09/18 13:12:23;;;;;;;4.53;1.90;;;;;;;;;;5093410;28;20032;-75
2021/09/18 13:14:54;;;;;;;3.22;1.65;;;;;;;;;;5093349;28;20081;-77
2021/09/18 13:17:38;;;;;;;3.00;2.08;;;;;;;;;;5093124;28;20433;-77
2021/09/18 13:20:15;;;;;;;4.35;2.42;;;;;;;;;;5093378;28;20035;-78
2021/09/18 13:22:41;;;;;;;3.20;1.98;;;;;;;;;;5093363;28;20036;-72
2021/09/18 13:25:09;;;;;;;4.70;1.98;;;;;;;;;;5093136;28;20024;-76
2021/09/18 13:27:36;;;;;;;3.55;2.00;;;;;;;;;;5093348;28;20030;-77
2021/09/18 13:30:03;;;;;;;4.15;2.30;;;;;;;;;;5092883;28;20032;-74
2021/09/18 13:32:29;;;;;;;7.60;3.53;;;;;;;;;;5093377;28;20106;-76
2021/09/18 13:34:55;;;;;;;6.00;2.28;;;;;;;;;;5091504;28;20150;-75
2021/09/18 13:37:21;;;;;;;4.47;2.33;;;;;;;;;;5093098;28;20036;-77
2021/09/18 13:39:48;;;;;;;3.22;2.70;;;;;;;;;;5092424;28;20067;-76
2021/09/18 13:42:15;;;;;;;4.20;2.30;;;;;;;;;;5091464;28;20068;-77
2021/09/18 13:44:41;;;;;;;19.98;17.58;;;;;;;;;;5092972;28;20020;-75
2021/09/18 13:47:07;;;;;;;5.57;2.60;;;;;;;;;;5092634;28;20065;-75
2021/09/18 13:49:34;;;;;;;3.13;2.45;;;;;;;;;;5092733;28;20067;-77
2021/09/18 13:52:01;;;;;;;8.35;6.50;;;;;;;;;;5092599;28;20032;-77
2021/09/18 13:54:27;;;;;;;5.07;3.50;;;;;;;;;;5092721;28;20032;-74
2021/09/18 13:56:53;;;;;;;9.32;5.85;;;;;;;;;;5092507;28;20035;-78
2021/09/18 13:59:19;;;;;;;10.80;6.38;;;;;;;;;;5092805;28;20024;-80
2021/09/18 14:01:45;;;;;;;7.60;4.70;;;;;;;;;;5092575;28;20120;-76
2021/09/18 14:04:11;;;;;;;5.03;2.25;;;;;;;;;;5092382;28;20024;-77
2021/09/18 14:06:38;;;;;;;6.25;4.18;;;;;;;;;;5092212;28;20577;-78
2021/09/18 14:09:05;;;;;;;5.05;2.78;;;;;;;;;;5092404;28;20065;-74
2021/09/18 14:11:31;;;;;;;3.53;2.30;;;;;;;;;;5092477;28;20106;-74
2021/09/18 14:13:58;;;;;;;4.40;2.50;;;;;;;;;;5092165;28;20036;-75
2021/09/18 14:16:24;;;;;;;3.92;2.20;;;;;;;;;;5092370;28;20107;-76
2021/09/18 14:18:50;;;;;;;3.47;3.13;;;;;;;;;;5092195;28;20039;-77
2021/09/18 14:21:17;;;;;;;5.15;3.08;;;;;;;;;;5092029;28;20024;-74
2021/09/18 14:23:43;;;;;;;3.97;2.58;;;;;;;;;;5092171;28;20047;-74
2021/09/18 14:26:11;;;;;;;4.20;3.00;;;;;;;;;;5092019;28;20036;-73
2021/09/18 14:28:37;;;;;;;3.75;2.75;;;;;;;;;;5092306;28;20030;-75
2021/09/18 14:31:03;;;;;;;4.03;3.03;;;;;;;;;;5091970;28;20031;-74
2021/09/18 14:33:31;;;;;;;3.88;2.97;;;;;;;;;;5092113;28;20532;-75
2021/09/18 14:35:57;;;;;;;5.22;2.38;;;;;;;;;;5092235;28;20542;-74